Data for 05/13/2015

Time Sea-Level Adjusted Pressure Absolute Pressure Temperature Relative Humidity Dew Point   
(mb) (inHg) (mb) (inHg) (C) (F) (%) (C) (F)
00:05 1014 29.94 843 24.89 6.1 43 81 3.1 37.6
00:10 1014 29.94 843 24.89 5.9 42.5 83 3.1 37.6
00:15 1014 29.94 843 24.89 5.7 42.3 81 2.7 36.9
00:20 1014 29.94 843 24.89 5.8 42.4 82 2.8 37.1
00:25 1014 29.94 843 24.89 5.7 42.3 80 2.6 36.7
00:30 1014 29.94 843 24.89 5.7 42.3 81 2.8 37
00:35 1014 29.94 843 24.89 5.7 42.3 80 2.6 36.7
00:40 1014 29.94 843 24.89 5.8 42.5 80 2.7 36.8
00:45 1014 29.94 843 24.89 5.9 42.5 80 2.6 36.7
00:50 1014 29.94 843 24.89 5.9 42.7 79 2.5 36.5
00:55 1014 29.94 843 24.89 6 42.8 79 2.6 36.7
01:00 1014 29.94 843 24.89 6.1 42.9 79 2.6 36.7
01:05 1014 29.94 843 24.89 6 42.8 79 2.7 36.8
01:10 1014 29.94 843 24.89 6 42.9 79 2.6 36.8
01:15 1014 29.94 843 24.89 6 42.8 79 2.6 36.8
01:20 1014 29.94 843 24.89 6 42.8 79 2.6 36.7
01:25 1014 29.94 843 24.89 6 42.8 78 2.5 36.5
01:30 1014 29.94 843 24.89 6.1 42.9 77 2.4 36.4
01:35 1014 29.94 843 24.89 6.1 43 78 2.5 36.6
01:40 1014 29.94 843 24.89 6 42.8 79 2.6 36.7
01:45 1014 29.94 843 24.89 5.9 42.7 78 2.5 36.4
01:50 1014 29.94 843 24.89 6 42.9 77 2.3 36.1
01:55 1014 29.94 843 24.89 6.1 43 77 2.3 36.2
02:00 1014 29.94 843 24.89 6.1 43 77 2.4 36.3
02:05 1014 29.94 843 24.89 6.1 43 77 2.4 36.3
02:10 1014 29.94 843 24.89 6 42.9 77 2.4 36.2
02:15 1014 29.94 843 24.89 6.1 42.9 76 2.2 36
02:20 1014 29.94 843 24.89 6 42.9 78 2.4 36.4
02:25 1013 29.91 843 24.89 5.9 42.7 78 2.4 36.3
02:30 1014 29.94 843 24.89 5.9 42.5 78 2.3 36.1
02:35 1013 29.91 843 24.89 5.9 42.6 77 2.2 35.9
02:40 1014 29.94 843 24.89 6 42.8 76 2.1 35.9
02:45 1014 29.94 843 24.89 5.9 42.7 76 2.1 35.8
02:50 1014 29.94 843 24.89 6 42.7 77 2.2 35.9
02:55 1014 29.94 843 24.89 6 42.8 77 2.2 36
03:00 1014 29.94 843 24.89 6 42.8 76 2.2 35.9
03:05 1014 29.94 843 24.89 6 42.7 78 2.4 36.2
03:10 1014 29.94 843 24.89 5.8 42.5 78 2.3 36.2
03:15 1014 29.94 843 24.89 5.8 42.4 79 2.4 36.4
03:20 1014 29.94 843 24.89 5.7 42.3 79 2.4 36.3
03:25 1014 29.94 843 24.89 5.7 42.2 79 2.4 36.3
03:30 1014 29.94 843 24.89 5.7 42.3 79 2.3 36.1
03:35 1014 29.94 843 24.89 5.8 42.4 77 2.1 35.8
03:40 1014 29.94 843 24.89 5.8 42.5 77 2.2 36
03:45 1014 29.94 843 24.89 5.8 42.5 78 2.2 36
03:50 1014 29.94 843 24.89 5.8 42.4 78 2.2 35.9
03:55 1014 29.94 843 24.89 5.8 42.4 78 2.2 36
04:00 1014 29.94 843 24.89 5.8 42.4 78 2.2 36
04:05 1013 29.91 842 24.86 5.7 42.3 77 2.1 35.7
04:10 1013 29.91 842 24.86 5.7 42.3 77 2.1 35.7
04:15 1013 29.91 842 24.86 5.6 42.1 79 2.2 36
04:20 1013 29.91 842 24.86 5.4 41.8 79 2.1 35.8
04:25 1013 29.91 842 24.86 5.5 41.9 78 2 35.5
04:30 1013 29.91 842 24.86 5.6 42 78 2 35.6
04:35 1013 29.91 842 24.86 5.6 42.1 77 2 35.5
04:40 1013 29.91 842 24.86 5.6 42.1 77 1.9 35.5
04:45 1013 29.91 842 24.86 5.6 42 78 2 35.5
04:50 1013 29.91 842 24.86 5.6 42 77 2 35.5
04:55 1013 29.91 842 24.86 5.6 42 78 2 35.5
05:00 1013 29.91 842 24.86 5.6 42 77 1.9 35.4
05:05 1013 29.91 842 24.86 5.5 41.9 77 1.8 35.3
05:10 1013 29.91 842 24.86 5.5 41.9 78 1.9 35.4
05:15 1013 29.91 842 24.86 5.5 41.9 77 1.9 35.4
05:20 1013 29.91 842 24.86 5.5 42 77 1.9 35.4
05:25 1013 29.91 842 24.86 5.5 42 77 1.9 35.4
05:30 1013 29.91 842 24.86 5.6 42 77 1.9 35.4
05:35 1013 29.91 843 24.89 5.6 42 77 1.8 35.3
05:40 1013 29.91 843 24.89 5.7 42.2 76 1.8 35.3
05:45 1013 29.91 843 24.89 5.8 42.5 75 1.8 35.3
05:50 1013 29.91 843 24.89 5.9 42.5 76 2 35.6
05:55 1013 29.91 843 24.89 5.8 42.5 76 1.9 35.4
06:00 1013 29.91 843 24.89 6 42.8 75 1.8 35.3
06:05 1014 29.94 843 24.89 6 42.9 75 2 35.5
06:10 1014 29.94 843 24.89 6.1 43 75 1.9 35.5
06:15 1014 29.94 843 24.89 6.1 43.1 74 2 35.5
06:20 1014 29.94 843 24.89 6.3 43.3 74 2 35.6
06:25 1014 29.94 843 24.89 6.4 43.6 74 2.1 35.8
06:30 1014 29.94 843 24.89 6.5 43.7 74 2.2 35.9
06:35 1013 29.91 843 24.89 6.6 43.8 73 2.2 35.9
06:40 1013 29.91 843 24.89 6.7 44 73 2.2 36
06:45 1013 29.91 843 24.89 6.7 44.1 74 2.4 36.3
06:50 1014 29.94 843 24.89 6.8 44.3 73 2.4 36.4
06:55 1014 29.94 843 24.89 6.8 44.2 73 2.4 36.3
07:00 1014 29.94 843 24.89 6.9 44.3 73 2.3 36.2
07:05 1013 29.91 843 24.89 7 44.6 72 2.3 36.2
07:10 1013 29.91 843 24.89 7.1 44.7 72 2.3 36.2
07:15 1013 29.91 843 24.89 7.2 45 71 2.4 36.2
07:20 1014 29.94 843 24.89 7.3 45.1 72 2.5 36.6
07:25 1013 29.91 843 24.89 7.3 45.1 71 2.5 36.5
07:30 1013 29.91 843 24.89 7.5 45.4 72 2.7 36.8
07:35 1013 29.91 843 24.89 7.4 45.4 71 2.6 36.6
07:40 1013 29.91 843 24.89 7.5 45.5 71 2.5 36.5
07:45 1013 29.91 843 24.89 7.6 45.7 71 2.7 36.9
07:50 1013 29.91 843 24.89 7.5 45.5 71 2.6 36.7
07:55 1013 29.91 843 24.89 7.6 45.6 71 2.7 36.8
08:00 1013 29.91 843 24.89 7.8 46.1 71 2.8 37.1
08:05 1013 29.91 843 24.89 7.8 46.1 70 2.7 36.9
08:10 1013 29.91 842 24.86 7.9 46.3 69 2.7 36.8
08:15 1013 29.91 842 24.86 8.4 47.2 68 2.9 37.3
08:20 1013 29.91 842 24.86 8.5 47.2 68 2.9 37.3
08:25 1013 29.91 842 24.86 8.5 47.3 68 2.9 37.2
08:30 1013 29.91 842 24.86 8.6 47.4 68 3.1 37.5
08:35 1013 29.91 842 24.86 8.6 47.5 67 2.9 37.3
08:40 1013 29.91 842 24.86 8.9 48.1 67 3.1 37.6
08:45 1013 29.91 842 24.86 9.2 48.6 65 3.1 37.6
08:50 1013 29.91 842 24.86 9.7 49.4 63 3 37.5
08:55 1013 29.91 843 24.89 10.1 50.1 63 3.3 38
09:00 1013 29.91 842 24.86 10.3 50.5 62 3.3 38
09:05 1013 29.91 842 24.86 10.8 51.5 61 3.5 38.4
09:10 1013 29.91 842 24.86 10.7 51.2 61 3.5 38.2
09:15 1013 29.91 842 24.86 10.8 51.4 61 3.6 38.4
09:20 1013 29.91 842 24.86 10.9 51.7 61 3.7 38.7
09:25 1013 29.91 842 24.86 11 51.9 60 3.5 38.4
09:30 1013 29.91 842 24.86 11 51.8 60 3.7 38.6
09:35 1013 29.91 842 24.86 11 51.8 59 3.3 38
09:40 1013 29.91 843 24.89 11.2 52.2 58 3.3 37.9
09:45 1013 29.91 843 24.89 11.6 52.8 57 3.3 37.9
09:50 1013 29.91 843 24.89 11.7 53 56 3.4 38.1
09:55 1013 29.91 843 24.89 12.3 54.2 54 3.4 38.1
10:00 1014 29.94 843 24.89 12.7 54.9 55 3.9 39.1
10:05 1014 29.94 843 24.89 12.3 54.2 55 3.7 38.6
10:10 1014 29.94 843 24.89 12.5 54.5 55 3.8 38.8
10:15 1014 29.94 843 24.89 12.6 54.7 58 4.7 40.5
10:20 1014 29.94 843 24.89 12.5 54.6 58 4.5 40.2
10:25 1013 29.91 843 24.89 12.6 54.7 57 4.3 39.8
10:30 1013 29.91 843 24.89 12.6 54.7 63 5.7 42.3
10:35 1014 29.94 843 24.89 12.6 54.6 60 5.1 41.2
10:40 1014 29.94 843 24.89 12.4 54.3 61 5.1 41.2
10:45 1013 29.91 843 24.89 12.5 54.4 61 5.1 41.2
10:50 1013 29.91 843 24.89 13.1 55.5 57 4.8 40.6
10:55 1014 29.94 843 24.89 13.1 55.7 57 4.8 40.7
11:00 1013 29.91 843 24.89 13.5 56.3 57 5.2 41.3
11:05 1014 29.94 843 24.89 14.5 58.1 53 5.2 41.3
11:10 1014 29.94 843 24.89 14.3 57.8 56 5.7 42.3
11:15 1014 29.94 843 24.89 14.5 58.1 53 5.2 41.4
11:20 1013 29.91 843 24.89 14.6 58.3 53 5.1 41.3
11:25 1013 29.91 843 24.89 15 58.9 52 5.2 41.3
11:30 1014 29.94 843 24.89 14.7 58.4 54 5.4 41.8
11:35 1013 29.91 843 24.89 15.3 59.5 50 5 41.1
11:40 1013 29.91 843 24.89 16.1 60.9 48 5.2 41.4
11:45 1013 29.91 843 24.89 16.7 62 46 5.2 41.3
11:50 1013 29.91 843 24.89 16.8 62.2 49 6.2 43.1
11:55 1013 29.91 843 24.89 16.3 61.4 48 5.4 41.8
12:00 1013 29.91 843 24.89 15.5 60 49 4.9 40.8
12:05 1013 29.91 843 24.89 15.6 60 51 5.6 42
12:10 1013 29.91 842 24.86 16.8 62.3 46 5.3 41.6
12:15 1013 29.91 842 24.86 16.5 61.8 50 6 42.9
12:20 1013 29.91 842 24.86 17.1 62.8 46 5.4 41.7
12:25 1013 29.91 842 24.86 18.2 64.8 42 5.4 41.6
12:30 1013 29.91 842 24.86 17.2 62.9 44 4.8 40.7
12:35 1013 29.91 842 24.86 17.4 63.3 45 5.6 42
12:40 1013 29.91 842 24.86 17.5 63.5 46 5.7 42.3
12:45 1013 29.91 842 24.86 17.9 64.3 43 5.4 41.7
12:50 1013 29.91 842 24.86 18 64.3 45 6.1 43
12:55 1013 29.91 842 24.86 17.9 64.3 42 5 40.9
13:00 1013 29.91 842 24.86 18.2 64.8 40 4.7 40.4
13:05 1013 29.91 842 24.86 17.8 64 41 4.4 39.9
13:10 1013 29.91 842 24.86 17.8 64 40 4.1 39.3
13:15 1013 29.91 842 24.86 17.6 63.7 42 4.5 40.1
13:20 1013 29.91 842 24.86 16.9 62.4 43 4.5 40.1
13:25 1013 29.91 842 24.86 17.6 63.6 38 3.3 38
13:30 1013 29.91 842 24.86 18.8 65.9 35 3 37.4
13:35 1013 29.91 842 24.86 19.4 66.9 32 2.3 36.1
13:40 1013 29.91 842 24.86 18.5 65.3 31 1.3 34.3
13:45 1013 29.91 842 24.86 18.1 64.6 30 0.6 33
13:50 1013 29.91 842 24.86 18.1 64.5 30 0.4 32.8
13:55 1013 29.91 842 24.86 19 66.2 30 1.2 34.2
14:00 1013 29.91 842 24.86 18.9 65.9 28 0.3 32.6
14:05 1013 29.91 842 24.86 19 66.1 30 1.3 34.3
14:10 1013 29.91 842 24.86 18.7 65.6 30 1 33.9
14:15 1013 29.91 842 24.86 19.4 66.9 28 0.8 33.4
14:20 1013 29.91 842 24.86 20.6 69.1 27 0.9 33.7
14:25 1012 29.88 842 24.86 20.5 68.9 25 0.2 32.4
14:30 1012 29.88 842 24.86 19.4 66.9 24 -1.6 29.1
14:35 1012 29.88 842 24.86 20.1 68.2 23 -1.5 29.3
14:40 1012 29.88 842 24.86 20.2 68.4 23 -1.3 29.6
14:45 1012 29.88 842 24.86 20.2 68.3 23 -1.7 29
14:50 1012 29.88 841 24.83 20.3 68.5 24 -0.6 30.8
14:55 1012 29.88 842 24.86 20.5 68.9 22 -1.9 28.5
15:00 1012 29.88 842 24.86 20.2 68.4 19 -3.8 25.1
15:05 1012 29.88 841 24.83 20 67.9 22 -2.5 27.5
15:10 1012 29.88 841 24.83 19.2 66.5 23 -2.5 27.6
15:15 1012 29.88 841 24.83 19.3 66.8 22 -2.7 27.1
15:20 1012 29.88 841 24.83 19.8 67.6 23 -1.8 28.8
15:25 1012 29.88 841 24.83 20.1 68.1 21 -2.6 27.3
15:30 1012 29.88 841 24.83 20.8 69.4 23 -1 30.1
15:35 1012 29.88 841 24.83 20.5 69 23 -1.2 29.8
15:40 1012 29.88 841 24.83 19.9 67.8 21 -2.8 27
15:45 1012 29.88 841 24.83 20.5 68.9 21 -2.2 28
15:50 1012 29.88 841 24.83 20.9 69.5 21 -2.1 28.2
15:55 1012 29.88 841 24.83 21.4 70.5 21 -1.8 28.8
16:00 1012 29.88 841 24.83 21.4 70.4 14 -6.7 20
16:05 1012 29.88 842 24.86 21.1 69.9 14 -7.3 18.9
16:10 1012 29.88 842 24.86 20.7 69.2 15 -7 19.5
16:15 1012 29.88 842 24.86 20.3 68.6 15 -7 19.4
16:20 1012 29.88 842 24.86 19.9 67.8 17 -6 21.3
16:25 1013 29.91 842 24.86 19.9 67.8 15 -7.2 19
16:30 1013 29.91 842 24.86 19.7 67.5 15 -7.2 19
16:35 1013 29.91 842 24.86 19.4 66.9 16 -6.8 19.7
16:40 1013 29.91 842 24.86 19.5 67.1 15 -7.3 18.8
16:45 1013 29.91 842 24.86 19.5 67.2 17 -5.8 21.5
16:50 1013 29.91 842 24.86 19.4 67 17 -5.8 21.6
16:55 1013 29.91 842 24.86 19.2 66.6 17 -6.4 20.5
17:00 1013 29.91 842 24.86 18.9 66 18 -5.8 21.5
17:05 1013 29.91 842 24.86 18.9 66.1 18 -5.6 21.9
17:10 1013 29.91 842 24.86 18.7 65.6 18 -5.8 21.6
17:15 1013 29.91 842 24.86 18.5 65.2 20 -4.7 23.6
17:20 1013 29.91 842 24.86 18.2 64.8 21 -4.5 24
17:25 1012 29.88 842 24.86 18.1 64.6 18 -6.4 20.4
17:30 1012 29.88 842 24.86 18.2 64.7 18 -6.2 20.9
17:35 1012 29.88 842 24.86 18.1 64.5 37 3.2 37.7
17:40 1012 29.88 842 24.86 17.1 62.8 43 4.6 40.3
17:45 1012 29.88 842 24.86 16.6 62 45 4.7 40.5
17:50 1012 29.88 842 24.86 16.6 61.9 44 4.5 40
17:55 1012 29.88 842 24.86 16.5 61.7 46 4.8 40.7
18:00 1012 29.88 842 24.86 16.4 61.5 47 5 41.1
18:05 1012 29.88 842 24.86 16.1 61 48 5.1 41.1
18:10 1012 29.88 842 24.86 16 60.8 48 5 40.9
18:15 1012 29.88 842 24.86 15.9 60.6 47 4.7 40.4
18:20 1012 29.88 842 24.86 15.9 60.6 47 4.7 40.5
18:25 1012 29.88 842 24.86 15.8 60.5 47 4.8 40.6
18:30 1012 29.88 842 24.86 15.8 60.4 47 4.5 40.2
18:35 1012 29.88 842 24.86 15.6 60.2 48 4.8 40.7
18:40 1012 29.88 841 24.83 15.5 59.8 48 4.6 40.3
18:45 1012 29.88 842 24.86 15.4 59.7 47 4.1 39.4
18:50 1012 29.88 842 24.86 15.3 59.6 45 3.7 38.7
18:55 1012 29.88 842 24.86 15.2 59.4 45 3.6 38.4
19:00 1012 29.88 842 24.86 15 59.1 46 3.7 38.6
19:05 1012 29.88 842 24.86 14.9 58.8 47 3.9 38.9
19:10 1012 29.88 842 24.86 14.7 58.5 49 4.1 39.4
19:15 1012 29.88 842 24.86 14.6 58.3 51 4.7 40.4
19:20 1012 29.88 842 24.86 14.5 58.1 53 5.2 41.3
19:25 1012 29.88 842 24.86 14.3 57.8 55 5.5 41.9
19:30 1012 29.88 842 24.86 14.2 57.6 56 5.7 42.2
19:35 1012 29.88 842 24.86 14 57.3 56 5.5 42
19:40 1013 29.91 842 24.86 13.9 57.1 57 5.6 42
19:45 1013 29.91 842 24.86 13.8 56.8 58 5.6 42.1
19:50 1013 29.91 842 24.86 13.6 56.5 58 5.6 42.1
19:55 1013 29.91 842 24.86 13.4 56.2 59 5.6 42
20:00 1013 29.91 842 24.86 13.4 56.1 59 5.6 42.2
20:05 1013 29.91 842 24.86 13.3 56 60 5.8 42.4
20:10 1013 29.91 842 24.86 13.2 55.7 61 5.8 42.5
20:15 1013 29.91 842 24.86 13.1 55.5 60 5.6 42
20:20 1013 29.91 842 24.86 13 55.5 59 5.3 41.5
20:25 1013 29.91 842 24.86 13 55.3 60 5.4 41.8
20:30 1013 29.91 842 24.86 12.8 55.1 61 5.5 41.8
20:35 1013 29.91 842 24.86 12.8 55 60 5.3 41.6
20:40 1013 29.91 842 24.86 13 55.3 59 5.1 41.2
20:45 1013 29.91 842 24.86 13 55.4 59 5.4 41.6
20:50 1013 29.91 842 24.86 12.8 55.1 60 5.3 41.6
20:55 1013 29.91 842 24.86 12.8 55 60 5.3 41.6
21:00 1013 29.91 842 24.86 12.8 55 60 5.4 41.6
21:05 1013 29.91 842 24.86 12.7 54.8 61 5.5 41.9
21:10 1013 29.91 842 24.86 12.6 54.7 61 5.5 41.9
21:15 1013 29.91 842 24.86 12.6 54.8 62 5.7 42.2
21:20 1013 29.91 842 24.86 12.5 54.6 63 5.8 42.4
21:25 1013 29.91 842 24.86 12.3 54.2 64 5.9 42.6
21:30 1013 29.91 842 24.86 12.3 54.2 64 5.8 42.5
21:35 1013 29.91 843 24.89 12.4 54.3 64 5.8 42.5
21:40 1013 29.91 843 24.89 12.3 54.2 64 5.8 42.4
21:45 1014 29.94 843 24.89 11.9 53.4 64 5.3 41.5
21:50 1014 29.94 843 24.89 11.6 52.9 63 4.8 40.7
21:55 1014 29.94 843 24.89 11.5 52.7 61 4.2 39.5
22:00 1014 29.94 843 24.89 11.1 52 63 4.3 39.7
22:05 1014 29.94 843 24.89 10.7 51.2 66 4.7 40.4
22:10 1014 29.94 843 24.89 11.2 52.2 63 4.6 40.3
22:15 1014 29.94 843 24.89 11.1 52 65 4.7 40.5
22:20 1014 29.94 843 24.89 10.9 51.7 63 4.2 39.6
22:25 1014 29.94 843 24.89 10.5 50.9 63 3.9 39
22:30 1014 29.94 843 24.89 10 50 65 3.8 38.8
22:35 1014 29.94 843 24.89 9.8 49.6 66 3.7 38.7
22:40 1014 29.94 844 24.92 9.8 49.6 65 3.6 38.5
22:45 1014 29.94 844 24.92 9.5 49.1 66 3.6 38.4
22:50 1014 29.94 844 24.92 9.1 48.4 67 3.4 38.2
22:55 1015 29.97 844 24.92 8.9 47.9 68 3.4 38
23:00 1015 29.97 844 24.92 8.6 47.6 69 3.3 38
23:05 1014 29.94 844 24.92 8.5 47.2 70 3.3 37.9
23:10 1015 29.97 844 24.92 8.4 47 72 3.6 38.4
23:15 1015 29.97 844 24.92 8 46.4 72 3.3 38
23:20 1015 29.97 844 24.92 8 46.3 72 3.2 37.7
23:25 1015 29.97 844 24.92 7.9 46.2 71 2.9 37.2
23:30 1015 29.97 844 24.92 7.8 46.1 72 3.1 37.5
23:35 1015 29.97 844 24.92 7.7 45.9 71 2.7 36.9
23:40 1015 29.97 844 24.92 7.5 45.5 72 2.7 36.9
23:45 1015 29.97 844 24.92 7.4 45.4 71 2.6 36.7
23:50 1015 29.97 844 24.92 7.5 45.4 70 2.4 36.4
23:55 1015 29.97 844 24.92 7.5 45.5 70 2.4 36.3
24:00 1015 29.97 844 24.92 7.6 45.7 70 2.5 36.6